KVTN/VTN METAR and TAF weather

Enter ICAO airport designator
Station Type Date Time Source
KVTN METAR 2019/04/22 17:52 UTC NOAA

KVTN 221752Z AUTO 34014G21KT 10SM OVC100 15/02 A3019 RMK AO2 PK WND 35029/1658 SLP223 T01500022 10156 20089 51006


Station Type Date Time Source
KVTN Decoded METAR 2019/04/22 17:52 UTC NOAA

MILLER FIELD - VALENTINE, NE, NE, United States (KVTN) 42-52N 100-33W 788M
Apr 22, 2019 - 01:52 PM EDT / 2019.04.22 1752 UTC
Wind: from the NNW (340 degrees) at 16 MPH (14 KT) gusting to 24 MPH (21 KT):0
Visibility: 10 mile(s):0
Sky conditions: overcast
Temperature: 59.0 F (15.0 C)
Dew Point: 36.0 F (2.2 C)
Relative Humidity: 41%
Pressure (altimeter): 30.19 in. Hg (1022 hPa)
Pressure tendency: 0.02 inches (0.6 hPa) higher than three hours ago
ob: KVTN 221752Z AUTO 34014G21KT 10SM OVC100 15/02 A3019 RMK AO2 PK WND 35029/1658 SLP223 T01500022 10156 20089 51006
cycle: 18

Station Type Date Time Source
KVTN TAF 2019/04/22 18:22 UTC NOAA

TAF KVTN 221720Z 2218/2318 36015G25KT P6SM BKN090
FM222100 36012G19KT P6SM BKN120
FM230200 VRB05KT P6SM SCT200
FM231500 22008KT P6SM SCT200

Example: see airport list